createdAt,value
2023-03-11T00:13:20.367Z,6.87
2023-03-11T00:28:25.276Z,9.00
2023-03-11T00:43:27.575Z,5.07
2023-03-11T00:58:30.726Z,5.70
2023-03-11T01:13:34.450Z,4.70
2023-03-11T01:28:36.829Z,5.43
2023-03-11T01:43:40.557Z,4.93
2023-03-11T01:58:49.929Z,6.73
2023-03-11T02:13:56.135Z,6.27
2023-03-11T02:29:04.696Z,6.77
2023-03-11T02:44:11.334Z,6.30
2023-03-11T02:59:13.716Z,6.33
2023-03-11T03:14:16.174Z,9.10
2023-03-11T03:29:19.039Z,5.70
2023-03-11T03:44:23.452Z,6.07
2023-03-11T03:59:25.841Z,5.73
2023-03-11T04:14:31.931Z,6.83
2023-03-11T04:29:36.528Z,9.40
2023-03-11T04:44:39.047Z,6.90
2023-03-11T04:59:42.107Z,6.93
2023-03-11T05:14:45.054Z,7.27
2023-03-11T05:29:47.426Z,6.57
2023-03-11T05:44:50.727Z,6.57
2023-03-11T05:59:53.590Z,6.70
2023-03-11T06:14:56.752Z,6.93
2023-03-11T06:29:59.386Z,5.30
2023-03-11T06:45:03.397Z,7.43
2023-03-11T07:00:07.743Z,6.93
2023-03-11T07:15:11.788Z,7.13
2023-03-11T07:30:15.875Z,9.63
2023-03-11T07:45:18.172Z,6.77
2023-03-11T08:00:20.834Z,7.73
2023-03-11T08:15:23.246Z,6.80
2023-03-11T08:30:25.546Z,4.67
2023-03-11T08:45:27.887Z,7.87
2023-03-11T09:00:30.302Z,7.87
2023-03-11T09:15:32.721Z,5.80
2023-03-11T09:30:35.953Z,3.93
2023-03-11T09:45:49.687Z,8.67
2023-03-11T10:00:52.368Z,2.80
2023-03-11T10:16:03.814Z,1.70
2023-03-11T10:31:18.858Z,3.47
2023-03-11T10:46:27.044Z,3.50
2023-03-11T11:01:30.132Z,3.27
2023-03-11T11:16:34.745Z,2.47
2023-03-11T11:31:38.914Z,2.73
2023-03-11T11:46:47.216Z,3.87
2023-03-11T12:01:49.513Z,3.20
2023-03-11T12:17:04.269Z,3.50
2023-03-11T12:32:07.216Z,3.40
2023-03-11T12:47:25.798Z,3.37
2023-03-11T13:02:47.586Z,5.13
2023-03-11T13:18:00.587Z,3.90
2023-03-11T13:33:22.961Z,7.57
2023-03-11T13:48:30.720Z,2.63
2023-03-11T14:03:40.798Z,2.70
2023-03-11T14:19:03.418Z,2.23
2023-03-11T14:34:22.359Z,5.17
2023-03-11T14:49:24.786Z,3.33
2023-03-11T15:04:33.221Z,2.50
2023-03-11T15:19:35.797Z,2.87
2023-03-11T15:34:38.452Z,2.17
2023-03-11T15:49:41.113Z,5.50
2023-03-11T16:04:43.583Z,11.20
2023-03-11T16:19:47.994Z,2.33
2023-03-11T16:34:51.851Z,2.53
2023-03-11T16:49:54.099Z,5.27
2023-03-11T17:04:56.456Z,4.40
2023-03-11T17:19:58.935Z,3.17
2023-03-11T17:35:01.332Z,5.37
2023-03-11T17:50:04.842Z,2.40
2023-03-11T18:05:07.798Z,3.80
2023-03-11T18:20:13.499Z,6.83
2023-03-11T18:35:17.523Z,5.80
2023-03-11T18:50:20.544Z,7.57
2023-03-11T19:05:22.883Z,16.90
2023-03-11T19:20:27.818Z,17.30
2023-03-11T19:35:30.236Z,16.50
2023-03-11T19:50:32.671Z,10.33
2023-03-11T20:05:39.779Z,10.23
2023-03-11T20:20:43.211Z,5.20
2023-03-11T20:35:45.869Z,5.57
2023-03-11T20:50:48.295Z,5.50
2023-03-11T21:05:50.583Z,4.67
2023-03-11T21:20:54.243Z,5.33
2023-03-11T21:35:59.373Z,6.53
2023-03-11T21:51:02.624Z,5.83
2023-03-11T22:06:08.154Z,7.03
2023-03-11T22:21:11.095Z,7.33
2023-03-11T22:36:13.638Z,7.93
2023-03-11T22:51:16.144Z,7.70
2023-03-11T23:06:19.956Z,5.47
2023-03-11T23:21:32.206Z,6.43
2023-03-11T23:36:34.534Z,4.67
2023-03-11T23:51:36.892Z,4.07
